createdAt,value
2023-08-03T00:00:15.753Z,58.33
2023-08-03T00:02:43.041Z,58.58
2023-08-03T00:05:10.207Z,58.31
2023-08-03T00:07:37.387Z,58.28
2023-08-03T00:10:05.388Z,58.59
2023-08-03T00:12:32.546Z,58.80
2023-08-03T00:15:01.059Z,58.23
2023-08-03T00:17:28.283Z,58.37
2023-08-03T00:19:55.499Z,58.15
2023-08-03T00:22:22.650Z,58.10
2023-08-03T00:24:50.515Z,58.12
2023-08-03T00:27:17.669Z,58.24
2023-08-03T00:29:44.855Z,58.46
2023-08-03T00:32:13.432Z,58.39
2023-08-03T00:34:40.587Z,58.14
2023-08-03T00:37:07.788Z,58.24
2023-08-03T00:39:34.941Z,57.95
2023-08-03T00:42:02.179Z,58.21
2023-08-03T00:44:29.490Z,58.01
2023-08-03T00:46:56.806Z,58.06
2023-08-03T00:49:25.495Z,58.39
2023-08-03T00:51:52.629Z,58.28
2023-08-03T00:54:19.837Z,58.45
2023-08-03T00:56:46.961Z,58.51
2023-08-03T00:59:14.454Z,58.06
2023-08-03T01:01:43.183Z,58.17
2023-08-03T01:04:11.463Z,58.38
2023-08-03T01:06:40.007Z,58.42
2023-08-03T01:09:07.359Z,57.82
2023-08-03T01:11:35.282Z,58.44
2023-08-03T01:14:02.739Z,58.01
2023-08-03T01:16:30.339Z,57.80
2023-08-03T01:18:57.545Z,57.82
2023-08-03T01:21:25.956Z,58.21
2023-08-03T01:23:54.505Z,58.25
2023-08-03T01:26:21.693Z,57.90
2023-08-03T01:28:48.834Z,57.90
2023-08-03T01:31:16.625Z,58.25
2023-08-03T01:33:43.801Z,58.22
2023-08-03T01:36:11.059Z,58.40
2023-08-03T01:38:38.235Z,58.47
2023-08-03T01:41:06.743Z,58.33
2023-08-03T01:43:34.265Z,58.15
2023-08-03T01:46:01.491Z,58.41
2023-08-03T01:48:28.921Z,58.05
2023-08-03T01:50:56.118Z,58.19
2023-08-03T01:53:23.269Z,58.17
2023-08-03T01:55:50.453Z,58.22
2023-08-03T01:58:19.257Z,57.64
2023-08-03T02:00:48.868Z,57.88
2023-08-03T02:03:17.205Z,57.74
2023-08-03T02:05:44.386Z,57.76
2023-08-03T02:08:11.889Z,57.64
2023-08-03T02:10:39.081Z,57.70
2023-08-03T02:13:06.231Z,58.11
2023-08-03T02:15:34.745Z,58.07
2023-08-03T02:18:01.963Z,57.72
2023-08-03T02:20:29.271Z,57.95
2023-08-03T02:22:56.442Z,57.97
2023-08-03T02:25:23.656Z,58.08
2023-08-03T02:27:50.839Z,58.15
2023-08-03T02:30:18.140Z,57.76
2023-08-03T02:32:46.722Z,58.12
2023-08-03T02:35:13.989Z,58.08
2023-08-03T02:37:41.185Z,57.99
2023-08-03T02:40:08.947Z,57.56
2023-08-03T02:42:36.556Z,57.38
2023-08-03T02:45:04.469Z,57.75
2023-08-03T02:47:32.230Z,57.52
2023-08-03T02:50:00.796Z,57.51
2023-08-03T02:52:27.971Z,57.69
2023-08-03T02:54:55.106Z,57.63
2023-08-03T02:57:22.246Z,57.73
2023-08-03T02:59:49.399Z,57.77
2023-08-03T03:02:16.607Z,57.47
2023-08-03T03:04:43.829Z,57.31
2023-08-03T03:07:12.404Z,57.24
2023-08-03T03:09:39.557Z,57.82
2023-08-03T03:12:07.608Z,57.52
2023-08-03T03:14:35.050Z,57.52
2023-08-03T03:17:02.256Z,57.70
2023-08-03T03:19:29.445Z,57.73
2023-08-03T03:21:56.943Z,57.80
2023-08-03T03:24:25.445Z,57.72
2023-08-03T03:26:52.579Z,57.67
2023-08-03T03:29:20.106Z,57.27
2023-08-03T03:31:47.473Z,57.21
2023-08-03T03:34:14.809Z,57.50
2023-08-03T03:36:41.984Z,57.17
2023-08-03T03:39:09.118Z,65.81
2023-08-03T03:41:37.599Z,62.04
2023-08-03T03:44:04.831Z,59.56
2023-08-03T03:46:31.970Z,60.27
2023-08-03T03:48:59.162Z,59.49
2023-08-03T03:51:26.382Z,58.82
2023-08-03T03:53:53.936Z,58.90
2023-08-03T03:56:21.085Z,59.00
2023-08-03T03:58:49.635Z,59.00
2023-08-03T04:01:16.814Z,58.75
2023-08-03T04:03:44.042Z,58.64
2023-08-03T04:06:11.316Z,58.41
2023-08-03T04:08:38.530Z,58.67
2023-08-03T04:11:05.686Z,58.33
2023-08-03T04:13:32.918Z,58.20
2023-08-03T04:16:01.456Z,58.02
2023-08-03T04:18:29.865Z,57.79
2023-08-03T04:20:58.277Z,58.10
2023-08-03T04:23:25.429Z,57.94
2023-08-03T04:25:52.567Z,57.95
2023-08-03T04:28:19.765Z,57.64
2023-08-03T04:30:46.977Z,57.37
2023-08-03T04:33:15.634Z,57.39
2023-08-03T04:35:42.806Z,57.66
2023-08-03T04:38:09.961Z,57.29
2023-08-03T04:40:37.264Z,57.25
2023-08-03T04:43:04.608Z,57.63
2023-08-03T04:45:31.766Z,57.58
2023-08-03T04:47:59.057Z,57.83
2023-08-03T04:50:27.668Z,57.54
2023-08-03T04:52:54.807Z,57.66
2023-08-03T04:55:22.061Z,57.75
2023-08-03T04:57:49.259Z,57.19
2023-08-03T05:00:16.860Z,57.25
2023-08-03T05:02:44.042Z,57.39
2023-08-03T05:05:11.247Z,57.37
2023-08-03T05:07:39.826Z,57.12
2023-08-03T05:10:07.339Z,57.09
2023-08-03T05:12:34.572Z,56.83
2023-08-03T05:15:01.729Z,57.06
2023-08-03T05:17:28.951Z,57.29
2023-08-03T05:19:56.183Z,57.09
2023-08-03T05:22:23.359Z,56.87
2023-08-03T05:24:51.886Z,57.24
2023-08-03T05:27:19.316Z,56.85
2023-08-03T05:29:46.488Z,57.03
2023-08-03T05:32:13.669Z,57.23
2023-08-03T05:34:40.932Z,57.12
2023-08-03T05:37:08.066Z,57.13
2023-08-03T05:39:35.340Z,57.31
2023-08-03T05:42:05.210Z,57.33
2023-08-03T05:44:32.383Z,57.05
2023-08-03T05:47:00.029Z,57.07
2023-08-03T05:49:27.276Z,57.09
2023-08-03T05:51:54.517Z,57.02
2023-08-03T05:54:21.683Z,56.84
2023-08-03T05:56:49.523Z,56.86
2023-08-03T05:59:21.066Z,57.00
2023-08-03T06:01:49.652Z,56.85
2023-08-03T06:04:17.416Z,56.77
2023-08-03T06:06:45.240Z,56.80
2023-08-03T06:09:13.897Z,56.95
2023-08-03T06:11:41.818Z,56.95
2023-08-03T06:14:12.270Z,56.41
2023-08-03T06:16:43.081Z,56.55
2023-08-03T06:19:10.521Z,56.74
2023-08-03T06:21:38.164Z,56.86
2023-08-03T06:24:05.442Z,56.92
2023-08-03T06:26:34.459Z,56.90
2023-08-03T06:29:01.966Z,56.72
2023-08-03T06:31:32.209Z,56.68
2023-08-03T06:34:00.978Z,56.70
2023-08-03T06:36:28.584Z,56.85
2023-08-03T06:38:56.543Z,56.43
2023-08-03T06:41:25.307Z,56.52
2023-08-03T06:43:53.108Z,56.62
2023-08-03T06:46:20.592Z,56.40
2023-08-03T06:48:48.302Z,56.69
2023-08-03T06:51:17.024Z,56.38
2023-08-03T06:53:44.754Z,56.67
2023-08-03T06:56:13.001Z,56.13
2023-08-03T06:58:40.186Z,56.50
2023-08-03T07:01:07.431Z,56.60
2023-08-03T07:03:34.831Z,56.06
2023-08-03T07:06:02.251Z,56.50
2023-08-03T07:08:30.985Z,56.35
2023-08-03T07:10:58.225Z,56.30
2023-08-03T07:13:25.420Z,56.64
2023-08-03T07:15:52.625Z,56.62
2023-08-03T07:18:19.965Z,56.27
2023-08-03T07:20:47.259Z,56.52
2023-08-03T07:23:14.470Z,56.34
2023-08-03T07:25:43.015Z,56.21
2023-08-03T07:28:10.195Z,56.28
2023-08-03T07:30:37.917Z,56.33
2023-08-03T07:33:05.334Z,56.21
2023-08-03T07:35:32.571Z,56.31
2023-08-03T07:38:00.031Z,56.05
2023-08-03T07:40:27.230Z,56.06
2023-08-03T07:42:55.792Z,56.29
2023-08-03T07:47:53.117Z,56.01
2023-08-03T07:50:20.305Z,55.75
2023-08-03T07:52:47.480Z,56.09
2023-08-03T07:55:14.699Z,56.14
2023-08-03T07:57:41.848Z,56.06
2023-08-03T08:00:11.973Z,56.25
2023-08-03T08:02:39.251Z,55.94
2023-08-03T08:05:07.258Z,56.00
2023-08-03T08:07:35.827Z,55.84
2023-08-03T08:10:04.518Z,55.74
2023-08-03T08:12:32.020Z,55.88
2023-08-03T08:14:59.260Z,55.57
2023-08-03T08:17:27.784Z,55.49
2023-08-03T08:19:56.893Z,55.90
2023-08-03T08:22:24.216Z,55.57
2023-08-03T08:24:51.460Z,55.67
2023-08-03T08:27:19.008Z,55.76
2023-08-03T08:29:46.950Z,55.47
2023-08-03T08:32:14.363Z,55.43
2023-08-03T08:34:43.043Z,55.80
2023-08-03T08:37:10.715Z,55.33
2023-08-03T08:39:38.115Z,55.63
2023-08-03T08:42:12.409Z,55.53
2023-08-03T08:44:39.732Z,55.60
2023-08-03T08:47:07.202Z,55.89
2023-08-03T08:52:08.126Z,56.00
2023-08-03T08:57:10.959Z,55.58
2023-08-03T08:59:59.380Z,55.87
2023-08-03T09:02:27.274Z,55.66
2023-08-03T09:04:54.742Z,55.68
2023-08-03T09:07:23.572Z,55.46
2023-08-03T09:10:00.316Z,55.18
2023-08-03T09:12:27.742Z,55.37
2023-08-03T09:14:54.982Z,55.41
2023-08-03T09:17:23.005Z,55.58
2023-08-03T09:25:01.471Z,55.40
2023-08-03T09:30:00.146Z,55.62
2023-08-03T09:32:31.931Z,55.39
2023-08-03T09:34:59.178Z,55.28
2023-08-03T09:40:06.802Z,55.44
2023-08-03T09:42:36.233Z,55.32
2023-08-03T09:45:06.080Z,55.39
2023-08-03T09:47:33.859Z,55.50
2023-08-03T09:50:01.623Z,54.92
2023-08-03T09:55:07.922Z,55.14
2023-08-03T09:57:40.131Z,55.16
2023-08-03T10:00:08.488Z,55.36
2023-08-03T10:02:52.361Z,55.24
2023-08-03T10:05:22.261Z,55.19
2023-08-03T10:07:57.488Z,55.08
2023-08-03T10:10:28.066Z,55.21
2023-08-03T10:13:01.070Z,55.20
2023-08-03T10:15:29.033Z,55.11
2023-08-03T10:17:56.665Z,54.83
2023-08-03T10:20:24.205Z,55.20
2023-08-03T10:23:21.561Z,54.96
2023-08-03T10:25:54.549Z,54.95
2023-08-03T10:28:22.651Z,55.00
2023-08-03T10:31:11.445Z,55.12
2023-08-03T10:34:15.080Z,54.76
2023-08-03T10:36:46.680Z,54.96
2023-08-03T10:39:15.183Z,54.94
2023-08-03T10:41:45.929Z,54.74
2023-08-03T10:44:26.856Z,54.43
2023-08-03T10:46:55.937Z,54.65
2023-08-03T10:49:48.022Z,54.52
2023-08-03T10:52:17.888Z,54.67
2023-08-03T10:54:45.803Z,54.41
2023-08-03T10:57:15.722Z,54.76
2023-08-03T10:59:47.011Z,54.62
2023-08-03T11:02:16.054Z,54.58
2023-08-03T11:04:44.073Z,54.01
2023-08-03T11:07:12.778Z,54.22
2023-08-03T11:09:40.123Z,54.66
2023-08-03T11:12:09.256Z,54.78
2023-08-03T11:14:37.932Z,54.38
2023-08-03T11:17:05.642Z,54.40
2023-08-03T11:19:38.309Z,54.33
2023-08-03T11:22:06.149Z,54.40
2023-08-03T11:24:33.440Z,53.93
2023-08-03T11:27:02.283Z,54.23
2023-08-03T11:29:29.595Z,54.34
2023-08-03T11:31:58.141Z,54.49
2023-08-03T11:34:25.482Z,53.89
2023-08-03T11:36:53.439Z,53.84
2023-08-03T11:39:21.087Z,54.31
2023-08-03T11:41:49.864Z,54.26
2023-08-03T11:44:20.729Z,54.31
2023-08-03T11:46:48.059Z,54.27
2023-08-03T11:49:17.294Z,53.81
2023-08-03T11:51:44.457Z,54.22
2023-08-03T11:54:22.602Z,54.06
2023-08-03T11:56:50.095Z,53.97
2023-08-03T11:59:17.451Z,53.97
2023-08-03T12:01:46.210Z,54.03
2023-08-03T12:04:15.123Z,54.20
2023-08-03T12:06:50.931Z,53.83
2023-08-03T12:09:23.515Z,53.55
2023-08-03T12:11:50.951Z,53.53
2023-08-03T12:14:18.787Z,53.67
2023-08-03T12:16:47.290Z,53.22
2023-08-03T12:19:14.719Z,53.48
2023-08-03T12:21:41.928Z,53.74
2023-08-03T12:24:11.048Z,53.43
2023-08-03T12:26:38.645Z,53.80
2023-08-03T12:29:08.626Z,53.75
2023-08-03T12:31:36.068Z,53.50
2023-08-03T12:34:03.510Z,53.62
2023-08-03T12:36:31.293Z,53.33
2023-08-03T12:38:58.475Z,53.54
2023-08-03T12:41:27.085Z,53.60
2023-08-03T12:43:54.275Z,53.50
2023-08-03T12:46:21.524Z,53.15
2023-08-03T12:48:48.780Z,53.42
2023-08-03T12:51:16.106Z,52.99
2023-08-03T12:53:43.489Z,53.11
2023-08-03T12:56:10.881Z,52.63
2023-08-03T12:58:39.486Z,52.42
2023-08-03T13:01:06.829Z,52.66
2023-08-03T13:03:34.086Z,52.37
2023-08-03T13:06:01.296Z,52.34
2023-08-03T13:08:28.612Z,52.06
2023-08-03T13:10:56.008Z,51.96
2023-08-03T13:13:23.190Z,51.60
2023-08-03T13:15:54.691Z,51.89
2023-08-03T13:18:22.214Z,51.84
2023-08-03T13:20:50.017Z,52.04
2023-08-03T13:23:17.472Z,52.09
2023-08-03T13:25:44.789Z,51.89
2023-08-03T13:28:11.993Z,51.78
2023-08-03T13:30:39.127Z,51.87
2023-08-03T13:33:07.687Z,51.96
2023-08-03T13:35:35.077Z,51.87
2023-08-03T13:38:02.379Z,51.90
2023-08-03T13:40:29.665Z,52.23
2023-08-03T13:42:56.813Z,52.29
2023-08-03T13:45:23.976Z,52.32
2023-08-03T13:47:51.522Z,52.21
2023-08-03T13:50:20.149Z,52.09
2023-08-03T13:52:47.351Z,51.85
2023-08-03T13:55:14.570Z,51.57
2023-08-03T13:57:42.301Z,51.67
2023-08-03T14:00:10.378Z,51.60
2023-08-03T14:05:08.666Z,51.32
2023-08-03T14:22:42.186Z,52.08
2023-08-03T14:27:51.520Z,52.46
2023-08-03T14:30:20.834Z,52.12
2023-08-03T14:32:48.859Z,52.66
2023-08-03T14:37:47.948Z,52.15
2023-08-03T14:40:15.274Z,52.06
2023-08-03T14:42:42.466Z,52.01
2023-08-03T14:45:10.484Z,51.54
2023-08-03T14:47:37.754Z,51.65
2023-08-03T14:52:36.087Z,51.15
2023-08-03T14:55:05.456Z,51.32
2023-08-03T14:57:32.714Z,51.25
2023-08-03T15:00:00.014Z,51.20
2023-08-03T15:02:27.401Z,51.11
2023-08-03T15:04:55.495Z,50.83
2023-08-03T15:07:24.653Z,51.13
2023-08-03T15:09:53.349Z,51.66
2023-08-03T15:12:25.128Z,51.35
2023-08-03T15:14:52.734Z,51.08
2023-08-03T15:19:50.361Z,51.43
2023-08-03T15:22:18.458Z,51.61
2023-08-03T15:24:48.516Z,51.07
2023-08-03T15:34:52.134Z,51.08
2023-08-03T15:37:21.083Z,50.93
2023-08-03T15:39:50.259Z,50.97
2023-08-03T15:42:22.034Z,50.73
2023-08-03T15:44:57.045Z,51.05
2023-08-03T15:47:51.479Z,50.59
2023-08-03T15:53:03.964Z,50.76
2023-08-03T15:58:01.098Z,51.49
2023-08-03T16:00:29.756Z,51.38
2023-08-03T16:02:57.077Z,51.72
2023-08-03T16:05:26.502Z,51.67
2023-08-03T16:07:53.962Z,51.85
2023-08-03T16:10:21.264Z,51.39
2023-08-03T16:12:48.460Z,51.58
2023-08-03T16:15:15.595Z,51.54
2023-08-03T16:17:44.155Z,51.21
2023-08-03T16:20:11.974Z,51.39
2023-08-03T16:22:39.136Z,51.32
2023-08-03T16:25:07.190Z,51.13
2023-08-03T16:27:35.026Z,51.43
2023-08-03T16:30:03.814Z,51.42
2023-08-03T16:32:31.364Z,51.57
2023-08-03T16:35:04.041Z,51.08
2023-08-03T16:37:32.895Z,51.34
2023-08-03T16:40:00.250Z,51.20
2023-08-03T16:42:27.514Z,51.57
2023-08-03T16:44:54.760Z,51.31
2023-08-03T16:47:22.174Z,51.82
2023-08-03T16:49:50.839Z,52.06
2023-08-03T16:52:19.670Z,51.43
2023-08-03T16:54:46.913Z,51.29
2023-08-03T16:57:14.155Z,51.50
2023-08-03T16:59:41.530Z,51.93
2023-08-03T17:02:08.698Z,51.57
2023-08-03T17:04:36.255Z,51.39
2023-08-03T17:07:03.784Z,51.97
2023-08-03T17:09:32.990Z,51.85
2023-08-03T17:12:00.261Z,51.53
2023-08-03T17:14:27.779Z,51.99
2023-08-03T17:16:55.050Z,52.05
2023-08-03T17:19:22.797Z,51.55
2023-08-03T17:21:50.259Z,51.68
2023-08-03T17:24:17.482Z,52.01
2023-08-03T17:26:46.724Z,51.97
2023-08-03T17:29:14.105Z,51.99
2023-08-03T17:31:41.875Z,51.92
2023-08-03T17:34:09.901Z,51.96
2023-08-03T17:36:37.716Z,51.96
2023-08-03T17:39:05.058Z,52.27
2023-08-03T17:41:32.311Z,52.28
2023-08-03T17:44:00.954Z,52.30
2023-08-03T17:46:29.944Z,52.11
2023-08-03T17:48:59.349Z,51.86
2023-08-03T17:51:26.586Z,52.15
2023-08-03T17:53:53.761Z,51.81
2023-08-03T17:56:20.968Z,51.63
2023-08-03T17:58:50.232Z,51.62
2023-08-03T18:01:20.238Z,51.72
2023-08-03T18:03:47.594Z,51.58
2023-08-03T18:06:15.928Z,51.76
2023-08-03T18:08:43.932Z,51.80
2023-08-03T18:11:11.367Z,51.69
2023-08-03T18:13:38.601Z,51.97
2023-08-03T18:16:07.588Z,52.03
2023-08-03T18:18:37.877Z,52.14
2023-08-03T18:21:06.398Z,52.51
2023-08-03T18:23:33.667Z,52.27
2023-08-03T18:26:01.895Z,52.08
2023-08-03T18:28:30.126Z,52.12
2023-08-03T18:31:01.856Z,52.16
2023-08-03T18:33:30.679Z,52.14
2023-08-03T18:36:04.315Z,51.75
2023-08-03T18:38:32.811Z,52.06
2023-08-03T18:41:01.714Z,52.03
2023-08-03T18:43:28.887Z,51.55
2023-08-03T18:45:57.651Z,51.69
2023-08-03T18:48:24.945Z,51.75
2023-08-03T18:51:00.295Z,51.74
2023-08-03T18:53:30.080Z,51.88
2023-08-03T18:56:02.545Z,51.96
2023-08-03T18:58:30.464Z,51.69
2023-08-03T19:00:59.130Z,51.96
2023-08-03T19:03:26.927Z,52.15
2023-08-03T19:05:54.362Z,51.92
2023-08-03T19:08:22.026Z,52.43
2023-08-03T19:10:51.096Z,52.27
2023-08-03T19:13:19.956Z,52.30
2023-08-03T19:15:47.334Z,52.60
2023-08-03T19:18:14.961Z,52.24
2023-08-03T19:20:43.363Z,52.68
2023-08-03T19:23:10.832Z,52.51
2023-08-03T19:25:39.558Z,52.12
2023-08-03T19:30:37.790Z,52.17
2023-08-03T19:33:09.334Z,51.93
2023-08-03T19:35:38.874Z,51.84
2023-08-03T19:38:06.232Z,52.12
2023-08-03T19:40:33.690Z,52.09
2023-08-03T19:43:01.638Z,52.38
2023-08-03T19:45:30.953Z,52.22
2023-08-03T19:47:58.985Z,52.46
2023-08-03T19:50:27.650Z,52.62
2023-08-03T19:55:29.726Z,52.36
2023-08-03T20:10:33.407Z,52.55
2023-08-03T20:15:52.323Z,52.46
2023-08-03T20:18:22.498Z,52.40
2023-08-03T20:20:49.764Z,52.36
2023-08-03T20:23:16.941Z,52.46
2023-08-03T20:25:44.305Z,52.89
2023-08-03T20:28:12.670Z,52.87
2023-08-03T20:30:40.382Z,52.98
2023-08-03T20:33:07.648Z,52.81
2023-08-03T20:35:36.231Z,53.00
2023-08-03T20:53:12.362Z,53.67
2023-08-03T20:55:39.555Z,53.44
2023-08-03T20:58:06.807Z,53.14
2023-08-03T21:00:33.989Z,52.97
2023-08-03T21:03:01.276Z,52.96
2023-08-03T21:05:36.954Z,53.16
2023-08-03T21:08:12.222Z,52.97
2023-08-03T21:13:09.821Z,53.55
2023-08-03T21:15:37.450Z,53.44
2023-08-03T21:18:04.736Z,53.30
2023-08-03T21:20:33.275Z,52.91
2023-08-03T21:23:00.755Z,53.33
2023-08-03T21:25:29.412Z,52.69
2023-08-03T21:27:56.611Z,52.61
2023-08-03T21:30:23.945Z,52.76
2023-08-03T21:32:51.239Z,53.04
2023-08-03T21:35:20.031Z,52.62
2023-08-03T21:37:47.389Z,52.49
2023-08-03T21:40:15.094Z,52.95
2023-08-03T21:42:43.863Z,52.68
2023-08-03T21:45:11.065Z,52.62
2023-08-03T21:47:38.380Z,52.57
2023-08-03T21:50:06.682Z,52.62
2023-08-03T21:52:33.897Z,52.58
2023-08-03T21:55:01.222Z,52.29
2023-08-03T21:57:28.476Z,52.43
2023-08-03T21:59:57.068Z,52.17
2023-08-03T22:02:24.365Z,52.26
2023-08-03T22:04:51.653Z,52.29
2023-08-03T22:07:18.960Z,52.51
2023-08-03T22:09:46.179Z,52.57
2023-08-03T22:12:13.585Z,52.47
2023-08-03T22:14:40.765Z,52.52
2023-08-03T22:17:09.834Z,52.69
2023-08-03T22:19:37.026Z,52.61
2023-08-03T22:22:04.669Z,52.70
2023-08-03T22:24:31.880Z,52.76
2023-08-03T22:26:59.146Z,52.26
2023-08-03T22:29:26.408Z,52.33
2023-08-03T22:31:53.650Z,52.55
2023-08-03T22:34:22.194Z,52.18
2023-08-03T22:36:49.360Z,52.37
2023-08-03T22:39:16.652Z,52.42
2023-08-03T22:41:43.982Z,52.48
2023-08-03T22:44:11.487Z,51.94
2023-08-03T22:46:38.730Z,51.92
2023-08-03T22:49:05.975Z,52.14
2023-08-03T22:51:34.658Z,52.16
2023-08-03T22:54:01.921Z,52.29
2023-08-03T22:56:30.112Z,52.04
2023-08-03T22:58:57.307Z,52.18
2023-08-03T23:01:24.614Z,52.42
2023-08-03T23:03:52.166Z,52.45
2023-08-03T23:06:21.382Z,52.44
2023-08-03T23:08:50.800Z,52.57
2023-08-03T23:11:18.197Z,52.72
2023-08-03T23:13:45.711Z,52.27
2023-08-03T23:16:17.843Z,52.11
2023-08-03T23:18:45.105Z,52.42
2023-08-03T23:21:12.302Z,51.99
2023-08-03T23:23:39.842Z,52.15
2023-08-03T23:26:09.657Z,52.09
2023-08-03T23:28:37.250Z,52.15
2023-08-03T23:31:04.708Z,52.10
2023-08-03T23:33:32.787Z,52.18
2023-08-03T23:36:01.033Z,52.11
2023-08-03T23:38:28.834Z,52.25
2023-08-03T23:40:56.022Z,52.14
2023-08-03T23:43:25.751Z,52.40
2023-08-03T23:45:53.125Z,52.24
2023-08-03T23:48:20.382Z,52.52
2023-08-03T23:50:47.526Z,52.44
2023-08-03T23:53:14.735Z,52.75
2023-08-03T23:55:41.937Z,52.79
2023-08-03T23:58:09.128Z,52.47
